Terminal Aerodrome Forecast
Issued by NWS

Home | Current Version | Previous Version | Text Only | Print | Product List | Glossary On
Versions: 1 2 3 4 5 6 7 8 9 10 11 12 13 14 15 16 17
000
FTUS41 KAKQ 272339
TAFPHF
TAF
KPHF 272339Z 2800/2824 19012KT P6SM SCT100 BKN250
     FM280800 21007KT 4SM BR BKN012 BKN100
     FM281400 22008KT P6SM BKN050=

USA.gov is the U.S. government's official web portal to all federal, state and local government web resources and services.